sensor_id;sensor_type;location;lat;lon;timestamp;temperature;humidity
2463;DHT22;1243;54.298;10.172;2022-08-21T00:02:04;15.00;93.90
2463;DHT22;1243;54.298;10.172;2022-08-21T00:04:32;15.00;93.80
2463;DHT22;1243;54.298;10.172;2022-08-21T00:06:58;15.00;94.20
2463;DHT22;1243;54.298;10.172;2022-08-21T00:09:24;15.00;99.00
2463;DHT22;1243;54.298;10.172;2022-08-21T00:11:50;15.00;94.00
2463;DHT22;1243;54.298;10.172;2022-08-21T00:14:16;14.90;95.00
2463;DHT22;1243;54.298;10.172;2022-08-21T00:16:42;14.90;93.80
2463;DHT22;1243;54.298;10.172;2022-08-21T00:19:08;14.90;93.80
2463;DHT22;1243;54.298;10.172;2022-08-21T00:21:35;14.90;93.90
2463;DHT22;1243;54.298;10.172;2022-08-21T00:24:01;14.90;99.90
2463;DHT22;1243;54.298;10.172;2022-08-21T00:26:27;14.90;99.30
2463;DHT22;1243;54.298;10.172;2022-08-21T00:28:53;14.90;93.80
2463;DHT22;1243;54.298;10.172;2022-08-21T00:31:19;14.90;94.50
2463;DHT22;1243;54.298;10.172;2022-08-21T00:33:45;14.90;99.90
2463;DHT22;1243;54.298;10.172;2022-08-21T00:36:12;14.80;99.90
2463;DHT22;1243;54.298;10.172;2022-08-21T00:38:38;14.80;99.90
2463;DHT22;1243;54.298;10.172;2022-08-21T00:41:07;14.80;99.90
2463;DHT22;1243;54.298;10.172;2022-08-21T00:43:35;14.80;95.10
2463;DHT22;1243;54.298;10.172;2022-08-21T00:46:03;14.70;93.70
2463;DHT22;1243;54.298;10.172;2022-08-21T00:48:31;14.70;93.80
2463;DHT22;1243;54.298;10.172;2022-08-21T00:51:06;14.60;93.70
2463;DHT22;1243;54.298;10.172;2022-08-21T00:53:34;14.60;93.80
2463;DHT22;1243;54.298;10.172;2022-08-21T00:59:34;14.60;99.90
2463;DHT22;1243;54.298;10.172;2022-08-21T01:02:03;14.50;99.90
2463;DHT22;1243;54.298;10.172;2022-08-21T01:04:29;14.50;99.90
2463;DHT22;1243;54.298;10.172;2022-08-21T01:06:55;14.40;94.30
2463;DHT22;1243;54.298;10.172;2022-08-21T01:09:21;14.40;96.90
2463;DHT22;1243;54.298;10.172;2022-08-21T01:11:47;14.40;99.90
2463;DHT22;1243;54.298;10.172;2022-08-21T01:14:14;14.40;99.90
2463;DHT22;1243;54.298;10.172;2022-08-21T01:16:44;14.40;99.90
2463;DHT22;1243;54.298;10.172;2022-08-21T01:19:10;14.30;99.90
2463;DHT22;1243;54.298;10.172;2022-08-21T01:21:37;14.30;99.90
2463;DHT22;1243;54.298;10.172;2022-08-21T01:24:03;14.30;99.90
2463;DHT22;1243;54.298;10.172;2022-08-21T01:26:33;14.30;97.80
2463;DHT22;1243;54.298;10.172;2022-08-21T01:29:14;14.30;99.90
2463;DHT22;1243;54.298;10.172;2022-08-21T01:31:40;14.20;99.90
2463;DHT22;1243;54.298;10.172;2022-08-21T01:34:08;14.20;99.90
2463;DHT22;1243;54.298;10.172;2022-08-21T01:36:34;14.20;99.90
2463;DHT22;1243;54.298;10.172;2022-08-21T01:39:02;14.20;99.90
2463;DHT22;1243;54.298;10.172;2022-08-21T01:41:29;14.20;99.90
2463;DHT22;1243;54.298;10.172;2022-08-21T01:43:55;14.20;99.90
2463;DHT22;1243;54.298;10.172;2022-08-21T01:46:20;14.20;99.90
2463;DHT22;1243;54.298;10.172;2022-08-21T01:48:46;14.20;99.90
2463;DHT22;1243;54.298;10.172;2022-08-21T01:51:13;14.20;99.90
2463;DHT22;1243;54.298;10.172;2022-08-21T01:53:39;14.20;99.90
2463;DHT22;1243;54.298;10.172;2022-08-21T01:56:09;14.10;99.90
2463;DHT22;1243;54.298;10.172;2022-08-21T01:58:35;14.10;99.90
2463;DHT22;1243;54.298;10.172;2022-08-21T02:01:02;14.00;99.90
2463;DHT22;1243;54.298;10.172;2022-08-21T02:03:29;14.00;99.90
2463;DHT22;1243;54.298;10.172;2022-08-21T02:05:55;14.00;99.90
2463;DHT22;1243;54.298;10.172;2022-08-21T02:08:21;14.00;99.90
2463;DHT22;1243;54.298;10.172;2022-08-21T02:10:50;14.00;99.90
2463;DHT22;1243;54.298;10.172;2022-08-21T02:13:16;14.00;99.90
2463;DHT22;1243;54.298;10.172;2022-08-21T02:15:42;14.00;99.90
2463;DHT22;1243;54.298;10.172;2022-08-21T02:18:08;13.90;99.90
2463;DHT22;1243;54.298;10.172;2022-08-21T02:20:41;13.90;99.90
2463;DHT22;1243;54.298;10.172;2022-08-21T02:23:09;13.90;99.90
2463;DHT22;1243;54.298;10.172;2022-08-21T02:25:41;13.90;99.90
2463;DHT22;1243;54.298;10.172;2022-08-21T02:28:10;13.90;99.90
2463;DHT22;1243;54.298;10.172;2022-08-21T02:30:39;14.00;99.90
2463;DHT22;1243;54.298;10.172;2022-08-21T02:33:07;14.00;99.90
2463;DHT22;1243;54.298;10.172;2022-08-21T02:35:36;13.90;99.90
2463;DHT22;1243;54.298;10.172;2022-08-21T02:38:06;13.90;99.90
2463;DHT22;1243;54.298;10.172;2022-08-21T02:40:35;13.90;99.90
2463;DHT22;1243;54.298;10.172;2022-08-21T02:43:05;13.80;99.90
2463;DHT22;1243;54.298;10.172;2022-08-21T02:45:31;13.80;99.90
2463;DHT22;1243;54.298;10.172;2022-08-21T02:48:06;13.80;99.90
2463;DHT22;1243;54.298;10.172;2022-08-21T02:50:39;13.80;99.90
2463;DHT22;1243;54.298;10.172;2022-08-21T02:53:07;13.80;99.90
2463;DHT22;1243;54.298;10.172;2022-08-21T02:55:37;13.80;99.90
2463;DHT22;1243;54.298;10.172;2022-08-21T02:58:05;13.80;99.90
2463;DHT22;1243;54.298;10.172;2022-08-21T03:00:32;13.80;99.90
2463;DHT22;1243;54.298;10.172;2022-08-21T03:02:59;13.80;99.90
2463;DHT22;1243;54.298;10.172;2022-08-21T03:05:27;13.80;99.90
2463;DHT22;1243;54.298;10.172;2022-08-21T03:07:56;13.90;99.90
2463;DHT22;1243;54.298;10.172;2022-08-21T03:10:24;13.90;99.90
2463;DHT22;1243;54.298;10.172;2022-08-21T03:13:00;13.90;99.90
2463;DHT22;1243;54.298;10.172;2022-08-21T03:15:29;13.90;99.90
2463;DHT22;1243;54.298;10.172;2022-08-21T03:17:55;13.90;99.90
2463;DHT22;1243;54.298;10.172;2022-08-21T03:20:24;13.90;99.90
2463;DHT22;1243;54.298;10.172;2022-08-21T03:22:51;14.00;99.90
2463;DHT22;1243;54.298;10.172;2022-08-21T03:25:17;14.00;99.90
2463;DHT22;1243;54.298;10.172;2022-08-21T03:27:44;14.00;99.90
2463;DHT22;1243;54.298;10.172;2022-08-21T03:30:11;14.00;99.90
2463;DHT22;1243;54.298;10.172;2022-08-21T03:32:37;14.00;99.90
2463;DHT22;1243;54.298;10.172;2022-08-21T03:35:04;14.00;99.90
2463;DHT22;1243;54.298;10.172;2022-08-21T03:37:30;14.00;99.90
2463;DHT22;1243;54.298;10.172;2022-08-21T03:39:57;14.00;99.90
2463;DHT22;1243;54.298;10.172;2022-08-21T03:42:23;14.00;99.90
2463;DHT22;1243;54.298;10.172;2022-08-21T03:44:49;14.00;99.90
2463;DHT22;1243;54.298;10.172;2022-08-21T03:47:15;14.00;99.90
2463;DHT22;1243;54.298;10.172;2022-08-21T03:49:41;14.00;99.90
2463;DHT22;1243;54.298;10.172;2022-08-21T03:52:07;14.00;99.90
2463;DHT22;1243;54.298;10.172;2022-08-21T03:54:33;14.00;99.90
2463;DHT22;1243;54.298;10.172;2022-08-21T03:56:58;14.00;99.90
2463;DHT22;1243;54.298;10.172;2022-08-21T03:59:25;14.00;99.90
2463;DHT22;1243;54.298;10.172;2022-08-21T04:01:55;14.00;99.90
2463;DHT22;1243;54.298;10.172;2022-08-21T04:04:22;14.00;99.90
2463;DHT22;1243;54.298;10.172;2022-08-21T04:06:48;14.00;99.90
2463;DHT22;1243;54.298;10.172;2022-08-21T04:09:15;14.00;99.90
2463;DHT22;1243;54.298;10.172;2022-08-21T04:11:50;14.00;99.90
2463;DHT22;1243;54.298;10.172;2022-08-21T04:14:20;14.00;99.90
2463;DHT22;1243;54.298;10.172;2022-08-21T04:16:46;14.10;99.90
2463;DHT22;1243;54.298;10.172;2022-08-21T04:19:12;14.00;99.90
2463;DHT22;1243;54.298;10.172;2022-08-21T04:21:40;14.00;99.90
2463;DHT22;1243;54.298;10.172;2022-08-21T04:24:09;14.10;99.90
2463;DHT22;1243;54.298;10.172;2022-08-21T04:26:37;14.00;99.90
2463;DHT22;1243;54.298;10.172;2022-08-21T04:29:04;14.00;99.90
2463;DHT22;1243;54.298;10.172;2022-08-21T04:31:33;14.10;99.90
2463;DHT22;1243;54.298;10.172;2022-08-21T04:34:00;14.10;99.90
2463;DHT22;1243;54.298;10.172;2022-08-21T04:36:33;14.10;99.90
2463;DHT22;1243;54.298;10.172;2022-08-21T04:38:59;14.10;99.90
2463;DHT22;1243;54.298;10.172;2022-08-21T04:41:26;14.10;99.90
2463;DHT22;1243;54.298;10.172;2022-08-21T04:43:51;14.10;99.90
2463;DHT22;1243;54.298;10.172;2022-08-21T04:46:20;14.10;99.90
2463;DHT22;1243;54.298;10.172;2022-08-21T04:48:46;14.10;99.90
2463;DHT22;1243;54.298;10.172;2022-08-21T04:51:31;14.10;99.90
2463;DHT22;1243;54.298;10.172;2022-08-21T04:54:07;14.10;99.90
2463;DHT22;1243;54.298;10.172;2022-08-21T04:56:42;14.20;99.90
2463;DHT22;1243;54.298;10.172;2022-08-21T04:59:15;14.20;99.90
2463;DHT22;1243;54.298;10.172;2022-08-21T05:01:44;14.30;99.90
2463;DHT22;1243;54.298;10.172;2022-08-21T05:04:12;14.30;99.90
2463;DHT22;1243;54.298;10.172;2022-08-21T05:06:41;14.30;99.90
2463;DHT22;1243;54.298;10.172;2022-08-21T05:09:09;14.40;99.90
2463;DHT22;1243;54.298;10.172;2022-08-21T05:11:37;14.40;99.90
2463;DHT22;1243;54.298;10.172;2022-08-21T05:14:03;14.40;99.90
2463;DHT22;1243;54.298;10.172;2022-08-21T05:16:30;14.50;99.90
2463;DHT22;1243;54.298;10.172;2022-08-21T05:18:55;14.60;99.90
2463;DHT22;1243;54.298;10.172;2022-08-21T05:21:21;14.60;99.90
2463;DHT22;1243;54.298;10.172;2022-08-21T05:23:47;14.70;99.90
2463;DHT22;1243;54.298;10.172;2022-08-21T05:26:13;14.70;99.90
2463;DHT22;1243;54.298;10.172;2022-08-21T05:28:39;14.80;99.90
2463;DHT22;1243;54.298;10.172;2022-08-21T05:31:05;14.80;99.90
2463;DHT22;1243;54.298;10.172;2022-08-21T05:33:31;14.90;99.90
2463;DHT22;1243;54.298;10.172;2022-08-21T05:35:57;14.90;99.90
2463;DHT22;1243;54.298;10.172;2022-08-21T05:38:41;15.00;99.90
2463;DHT22;1243;54.298;10.172;2022-08-21T05:44:35;15.10;99.90
2463;DHT22;1243;54.298;10.172;2022-08-21T05:47:08;15.10;99.90
2463;DHT22;1243;54.298;10.172;2022-08-21T05:49:35;15.30;99.90
2463;DHT22;1243;54.298;10.172;2022-08-21T05:52:19;15.30;99.90
2463;DHT22;1243;54.298;10.172;2022-08-21T05:54:45;15.40;99.90
2463;DHT22;1243;54.298;10.172;2022-08-21T05:57:19;15.40;99.90
2463;DHT22;1243;54.298;10.172;2022-08-21T05:59:46;15.50;99.90
2463;DHT22;1243;54.298;10.172;2022-08-21T06:02:12;15.60;99.90
2463;DHT22;1243;54.298;10.172;2022-08-21T06:04:53;15.70;99.90
2463;DHT22;1243;54.298;10.172;2022-08-21T06:07:21;15.80;99.90
2463;DHT22;1243;54.298;10.172;2022-08-21T06:09:47;15.90;99.90
2463;DHT22;1243;54.298;10.172;2022-08-21T06:12:14;16.00;99.90
2463;DHT22;1243;54.298;10.172;2022-08-21T06:14:43;16.10;99.90
2463;DHT22;1243;54.298;10.172;2022-08-21T06:17:12;16.10;99.90
2463;DHT22;1243;54.298;10.172;2022-08-21T06:19:39;16.10;99.90
2463;DHT22;1243;54.298;10.172;2022-08-21T06:22:05;16.20;99.90
2463;DHT22;1243;54.298;10.172;2022-08-21T06:24:32;16.30;99.90
2463;DHT22;1243;54.298;10.172;2022-08-21T06:27:07;16.40;99.90
2463;DHT22;1243;54.298;10.172;2022-08-21T06:29:36;16.40;99.90
2463;DHT22;1243;54.298;10.172;2022-08-21T06:32:03;16.50;99.90
2463;DHT22;1243;54.298;10.172;2022-08-21T06:34:30;16.60;99.90
2463;DHT22;1243;54.298;10.172;2022-08-21T06:36:56;16.70;99.90
2463;DHT22;1243;54.298;10.172;2022-08-21T06:42:28;16.90;99.90
2463;DHT22;1243;54.298;10.172;2022-08-21T06:44:54;17.00;99.90
2463;DHT22;1243;54.298;10.172;2022-08-21T06:47:30;17.10;99.90
2463;DHT22;1243;54.298;10.172;2022-08-21T06:49:56;17.20;99.90
2463;DHT22;1243;54.298;10.172;2022-08-21T06:52:23;17.20;99.90
2463;DHT22;1243;54.298;10.172;2022-08-21T06:54:49;17.30;99.90
2463;DHT22;1243;54.298;10.172;2022-08-21T06:57:15;17.30;99.90
2463;DHT22;1243;54.298;10.172;2022-08-21T06:59:44;17.40;97.70
2463;DHT22;1243;54.298;10.172;2022-08-21T07:02:10;17.50;95.40
2463;DHT22;1243;54.298;10.172;2022-08-21T07:14:38;17.80;1.00
2463;DHT22;1243;54.298;10.172;2022-08-21T07:17:04;17.90;1.00
2463;DHT22;1243;54.298;10.172;2022-08-21T07:19:30;18.10;1.00
2463;DHT22;1243;54.298;10.172;2022-08-21T07:22:00;18.20;1.00
2463;DHT22;1243;54.298;10.172;2022-08-21T07:24:26;18.30;1.00
2463;DHT22;1243;54.298;10.172;2022-08-21T07:26:52;18.30;1.00
2463;DHT22;1243;54.298;10.172;2022-08-21T07:29:21;18.40;1.00
2463;DHT22;1243;54.298;10.172;2022-08-21T07:32:05;18.50;1.00
2463;DHT22;1243;54.298;10.172;2022-08-21T07:34:31;18.60;1.00
2463;DHT22;1243;54.298;10.172;2022-08-21T07:36:57;18.70;1.00
2463;DHT22;1243;54.298;10.172;2022-08-21T07:39:24;18.80;1.00
2463;DHT22;1243;54.298;10.172;2022-08-21T07:41:50;18.90;1.00
2463;DHT22;1243;54.298;10.172;2022-08-21T07:44:16;18.90;1.00
2463;DHT22;1243;54.298;10.172;2022-08-21T07:46:43;19.00;1.00
2463;DHT22;1243;54.298;10.172;2022-08-21T07:49:09;19.10;1.00
2463;DHT22;1243;54.298;10.172;2022-08-21T07:51:37;19.20;1.00
2463;DHT22;1243;54.298;10.172;2022-08-21T07:54:04;19.20;1.00
2463;DHT22;1243;54.298;10.172;2022-08-21T07:56:31;19.30;1.00
2463;DHT22;1243;54.298;10.172;2022-08-21T07:58:57;19.30;1.00
2463;DHT22;1243;54.298;10.172;2022-08-21T08:01:23;19.40;1.00
2463;DHT22;1243;54.298;10.172;2022-08-21T08:03:49;19.50;1.00
2463;DHT22;1243;54.298;10.172;2022-08-21T08:06:15;19.60;1.00
2463;DHT22;1243;54.298;10.172;2022-08-21T08:08:44;19.70;1.00
2463;DHT22;1243;54.298;10.172;2022-08-21T08:11:11;19.80;1.00
2463;DHT22;1243;54.298;10.172;2022-08-21T08:13:45;19.80;1.00
2463;DHT22;1243;54.298;10.172;2022-08-21T08:16:11;20.00;1.00
2463;DHT22;1243;54.298;10.172;2022-08-21T08:18:37;20.10;1.00
2463;DHT22;1243;54.298;10.172;2022-08-21T08:21:04;20.20;1.00
2463;DHT22;1243;54.298;10.172;2022-08-21T08:23:36;20.20;1.00
2463;DHT22;1243;54.298;10.172;2022-08-21T08:26:06;20.20;1.00
2463;DHT22;1243;54.298;10.172;2022-08-21T08:28:32;20.20;1.00
2463;DHT22;1243;54.298;10.172;2022-08-21T08:31:00;20.30;1.00
2463;DHT22;1243;54.298;10.172;2022-08-21T08:33:57;20.30;1.00
2463;DHT22;1243;54.298;10.172;2022-08-21T08:36:35;20.40;1.00
2463;DHT22;1243;54.298;10.172;2022-08-21T08:39:04;20.50;1.00
2463;DHT22;1243;54.298;10.172;2022-08-21T08:41:32;20.50;1.00
2463;DHT22;1243;54.298;10.172;2022-08-21T08:44:03;20.60;1.00
2463;DHT22;1243;54.298;10.172;2022-08-21T08:46:41;20.70;1.00
2463;DHT22;1243;54.298;10.172;2022-08-21T08:52:31;21.00;1.00
2463;DHT22;1243;54.298;10.172;2022-08-21T08:55:14;21.30;1.00
2463;DHT22;1243;54.298;10.172;2022-08-21T08:57:46;21.50;1.00
2463;DHT22;1243;54.298;10.172;2022-08-21T09:00:17;21.70;1.00
2463;DHT22;1243;54.298;10.172;2022-08-21T09:02:45;21.80;1.00
2463;DHT22;1243;54.298;10.172;2022-08-21T09:05:23;21.80;1.00
2463;DHT22;1243;54.298;10.172;2022-08-21T09:24:49;23.20;1.00
2463;DHT22;1243;54.298;10.172;2022-08-21T09:27:20;23.20;1.00
2463;DHT22;1243;54.298;10.172;2022-08-21T09:29:50;23.30;1.00
2463;DHT22;1243;54.298;10.172;2022-08-21T09:32:24;23.30;1.00
2463;DHT22;1243;54.298;10.172;2022-08-21T09:35:12;23.30;1.00
2463;DHT22;1243;54.298;10.172;2022-08-21T09:37:56;23.40;1.00
2463;DHT22;1243;54.298;10.172;2022-08-21T09:43:05;23.90;1.00
2463;DHT22;1243;54.298;10.172;2022-08-21T09:45:32;24.20;1.00
2463;DHT22;1243;54.298;10.172;2022-08-21T09:48:18;24.20;1.00
2463;DHT22;1243;54.298;10.172;2022-08-21T09:50:46;24.50;1.00
2463;DHT22;1243;54.298;10.172;2022-08-21T09:53:31;24.70;1.00
2463;DHT22;1243;54.298;10.172;2022-08-21T09:56:00;24.80;1.00
2463;DHT22;1243;54.298;10.172;2022-08-21T09:58:48;24.80;1.00
2463;DHT22;1243;54.298;10.172;2022-08-21T10:01:25;25.10;1.00
2463;DHT22;1243;54.298;10.172;2022-08-21T10:04:05;25.30;1.00
2463;DHT22;1243;54.298;10.172;2022-08-21T10:06:33;25.50;1.00
2463;DHT22;1243;54.298;10.172;2022-08-21T10:09:15;25.50;1.00
2463;DHT22;1243;54.298;10.172;2022-08-21T10:11:51;25.70;1.00
2463;DHT22;1243;54.298;10.172;2022-08-21T10:17:43;25.80;1.00
2463;DHT22;1243;54.298;10.172;2022-08-21T10:23:34;26.40;1.00
2463;DHT22;1243;54.298;10.172;2022-08-21T10:28:39;27.00;1.00
2463;DHT22;1243;54.298;10.172;2022-08-21T10:31:18;27.10;1.00
2463;DHT22;1243;54.298;10.172;2022-08-21T10:39:51;27.20;1.00
2463;DHT22;1243;54.298;10.172;2022-08-21T10:45:30;25.90;1.00
2463;DHT22;1243;54.298;10.172;2022-08-21T10:48:05;25.20;1.00
2463;DHT22;1243;54.298;10.172;2022-08-21T10:56:26;24.90;1.00
2463;DHT22;1243;54.298;10.172;2022-08-21T11:01:47;24.70;1.00
2463;DHT22;1243;54.298;10.172;2022-08-21T11:04:23;24.00;1.00
2463;DHT22;1243;54.298;10.172;2022-08-21T11:06:57;24.60;1.00
2463;DHT22;1243;54.298;10.172;2022-08-21T11:09:25;25.70;1.00
2463;DHT22;1243;54.298;10.172;2022-08-21T11:11:56;26.70;1.00
2463;DHT22;1243;54.298;10.172;2022-08-21T11:17:39;27.60;1.00
2463;DHT22;1243;54.298;10.172;2022-08-21T11:20:46;27.10;1.00
2463;DHT22;1243;54.298;10.172;2022-08-21T11:23:24;27.50;1.00
2463;DHT22;1243;54.298;10.172;2022-08-21T11:26:00;28.00;1.00
2463;DHT22;1243;54.298;10.172;2022-08-21T11:28:31;28.50;1.00
2463;DHT22;1243;54.298;10.172;2022-08-21T11:31:04;29.20;1.00
2463;DHT22;1243;54.298;10.172;2022-08-21T11:36:30;28.60;1.00
2463;DHT22;1243;54.298;10.172;2022-08-21T11:39:22;28.80;1.00
2463;DHT22;1243;54.298;10.172;2022-08-21T11:42:20;29.40;1.00
2463;DHT22;1243;54.298;10.172;2022-08-21T11:44:56;30.20;1.00
2463;DHT22;1243;54.298;10.172;2022-08-21T11:47:37;30.60;1.00
2463;DHT22;1243;54.298;10.172;2022-08-21T11:50:18;31.00;1.00
2463;DHT22;1243;54.298;10.172;2022-08-21T11:52:52;31.30;1.00
2463;DHT22;1243;54.298;10.172;2022-08-21T11:58:20;31.70;1.00
2463;DHT22;1243;54.298;10.172;2022-08-21T12:00:58;31.90;1.00
2463;DHT22;1243;54.298;10.172;2022-08-21T12:03:34;32.40;1.00
2463;DHT22;1243;54.298;10.172;2022-08-21T12:06:06;32.90;1.00
2463;DHT22;1243;54.298;10.172;2022-08-21T12:08:37;32.70;1.00
2463;DHT22;1243;54.298;10.172;2022-08-21T12:11:22;32.30;1.00
2463;DHT22;1243;54.298;10.172;2022-08-21T12:16:35;33.00;1.00
2463;DHT22;1243;54.298;10.172;2022-08-21T12:19:29;33.20;1.00
2463;DHT22;1243;54.298;10.172;2022-08-21T12:30:06;32.10;1.00
2463;DHT22;1243;54.298;10.172;2022-08-21T12:32:53;31.20;1.00
2463;DHT22;1243;54.298;10.172;2022-08-21T12:35:24;30.80;1.00
2463;DHT22;1243;54.298;10.172;2022-08-21T12:38:16;30.30;1.00
2463;DHT22;1243;54.298;10.172;2022-08-21T12:40:48;29.50;1.00
2463;DHT22;1243;54.298;10.172;2022-08-21T12:43:33;29.20;1.00
2463;DHT22;1243;54.298;10.172;2022-08-21T12:46:00;28.80;1.00
2463;DHT22;1243;54.298;10.172;2022-08-21T12:52:07;28.80;1.00
2463;DHT22;1243;54.298;10.172;2022-08-21T12:54:42;28.80;1.00
2463;DHT22;1243;54.298;10.172;2022-08-21T12:57:17;29.00;1.00
2463;DHT22;1243;54.298;10.172;2022-08-21T12:59:44;29.30;1.00
2463;DHT22;1243;54.298;10.172;2022-08-21T13:02:22;29.60;1.00
2463;DHT22;1243;54.298;10.172;2022-08-21T13:04:49;30.00;1.00
2463;DHT22;1243;54.298;10.172;2022-08-21T13:07:22;30.20;1.00
2463;DHT22;1243;54.298;10.172;2022-08-21T13:09:53;29.90;1.00
2463;DHT22;1243;54.298;10.172;2022-08-21T13:12:21;29.70;1.00
2463;DHT22;1243;54.298;10.172;2022-08-21T13:14:50;29.70;1.00
2463;DHT22;1243;54.298;10.172;2022-08-21T13:17:20;29.40;1.00
2463;DHT22;1243;54.298;10.172;2022-08-21T13:20:08;29.30;1.00
2463;DHT22;1243;54.298;10.172;2022-08-21T13:22:42;29.00;1.00
2463;DHT22;1243;54.298;10.172;2022-08-21T13:25:17;29.00;1.00
2463;DHT22;1243;54.298;10.172;2022-08-21T13:27:44;28.80;1.00
2463;DHT22;1243;54.298;10.172;2022-08-21T13:30:18;28.80;1.00
2463;DHT22;1243;54.298;10.172;2022-08-21T13:32:51;28.90;1.00
2463;DHT22;1243;54.298;10.172;2022-08-21T13:35:45;28.90;1.00
2463;DHT22;1243;54.298;10.172;2022-08-21T13:38:12;29.00;1.00
2463;DHT22;1243;54.298;10.172;2022-08-21T13:41:13;28.80;1.00
2463;DHT22;1243;54.298;10.172;2022-08-21T13:43:46;28.50;1.00
2463;DHT22;1243;54.298;10.172;2022-08-21T13:46:13;28.80;1.00
2463;DHT22;1243;54.298;10.172;2022-08-21T13:48:41;29.00;1.00
2463;DHT22;1243;54.298;10.172;2022-08-21T13:51:08;29.40;1.00
2463;DHT22;1243;54.298;10.172;2022-08-21T13:58:52;28.90;1.00
2463;DHT22;1243;54.298;10.172;2022-08-21T14:01:27;29.00;1.00
2463;DHT22;1243;54.298;10.172;2022-08-21T14:04:38;28.90;1.00
2463;DHT22;1243;54.298;10.172;2022-08-21T14:06:44;28.80;1.00
2463;DHT22;1243;54.298;10.172;2022-08-21T14:12:19;28.90;1.00
2463;DHT22;1243;54.298;10.172;2022-08-21T14:14:49;28.90;1.00
2463;DHT22;1243;54.298;10.172;2022-08-21T14:17:31;28.90;1.00
2463;DHT22;1243;54.298;10.172;2022-08-21T14:19:57;28.70;1.00
2463;DHT22;1243;54.298;10.172;2022-08-21T14:22:41;28.70;1.00
2463;DHT22;1243;54.298;10.172;2022-08-21T14:28:04;28.50;1.00
2463;DHT22;1243;54.298;10.172;2022-08-21T14:30:37;28.70;1.00
2463;DHT22;1243;54.298;10.172;2022-08-21T14:33:07;28.60;1.00
2463;DHT22;1243;54.298;10.172;2022-08-21T14:35:34;28.60;1.00
2463;DHT22;1243;54.298;10.172;2022-08-21T14:38:00;28.60;1.00
2463;DHT22;1243;54.298;10.172;2022-08-21T14:40:25;28.70;1.00
2463;DHT22;1243;54.298;10.172;2022-08-21T14:42:52;28.80;1.00
2463;DHT22;1243;54.298;10.172;2022-08-21T14:45:29;28.90;1.00
2463;DHT22;1243;54.298;10.172;2022-08-21T14:47:57;28.90;1.00
2463;DHT22;1243;54.298;10.172;2022-08-21T14:50:23;28.60;1.00
2463;DHT22;1243;54.298;10.172;2022-08-21T14:52:49;28.10;1.00
2463;DHT22;1243;54.298;10.172;2022-08-21T14:55:16;27.50;1.00
2463;DHT22;1243;54.298;10.172;2022-08-21T14:57:45;27.20;1.00
2463;DHT22;1243;54.298;10.172;2022-08-21T15:00:13;27.00;1.00
2463;DHT22;1243;54.298;10.172;2022-08-21T15:02:39;26.80;1.00
2463;DHT22;1243;54.298;10.172;2022-08-21T15:05:05;26.40;1.00
2463;DHT22;1243;54.298;10.172;2022-08-21T15:07:31;26.30;1.00
2463;DHT22;1243;54.298;10.172;2022-08-21T15:09:56;26.40;1.00
2463;DHT22;1243;54.298;10.172;2022-08-21T15:12:23;26.60;1.00
2463;DHT22;1243;54.298;10.172;2022-08-21T15:14:49;26.90;1.00
2463;DHT22;1243;54.298;10.172;2022-08-21T15:17:15;27.10;1.00
2463;DHT22;1243;54.298;10.172;2022-08-21T15:19:41;27.20;1.00
2463;DHT22;1243;54.298;10.172;2022-08-21T15:22:07;27.30;1.00
2463;DHT22;1243;54.298;10.172;2022-08-21T15:24:32;27.20;1.00
2463;DHT22;1243;54.298;10.172;2022-08-21T15:27:01;27.00;1.00
2463;DHT22;1243;54.298;10.172;2022-08-21T15:29:28;26.90;1.00
2463;DHT22;1243;54.298;10.172;2022-08-21T15:31:56;26.90;1.00
2463;DHT22;1243;54.298;10.172;2022-08-21T15:34:23;26.80;1.00
2463;DHT22;1243;54.298;10.172;2022-08-21T15:36:49;26.60;1.00
2463;DHT22;1243;54.298;10.172;2022-08-21T15:39:15;26.50;1.00
2463;DHT22;1243;54.298;10.172;2022-08-21T15:41:40;26.40;1.00
2463;DHT22;1243;54.298;10.172;2022-08-21T15:44:09;26.30;1.00
2463;DHT22;1243;54.298;10.172;2022-08-21T15:46:35;26.30;1.00
2463;DHT22;1243;54.298;10.172;2022-08-21T15:49:01;26.40;1.00
2463;DHT22;1243;54.298;10.172;2022-08-21T15:51:27;26.40;1.00
2463;DHT22;1243;54.298;10.172;2022-08-21T15:53:53;26.30;1.00
2463;DHT22;1243;54.298;10.172;2022-08-21T15:56:22;26.40;1.00
2463;DHT22;1243;54.298;10.172;2022-08-21T15:58:54;26.40;1.00
2463;DHT22;1243;54.298;10.172;2022-08-21T16:01:23;26.40;1.00
2463;DHT22;1243;54.298;10.172;2022-08-21T16:03:50;26.50;1.00
2463;DHT22;1243;54.298;10.172;2022-08-21T16:06:18;26.60;1.00
2463;DHT22;1243;54.298;10.172;2022-08-21T16:08:43;26.40;1.00
2463;DHT22;1243;54.298;10.172;2022-08-21T16:11:11;26.00;1.00
2463;DHT22;1243;54.298;10.172;2022-08-21T16:13:41;25.60;1.00
2463;DHT22;1243;54.298;10.172;2022-08-21T16:16:12;25.40;1.00
2463;DHT22;1243;54.298;10.172;2022-08-21T16:18:39;25.20;1.00
2463;DHT22;1243;54.298;10.172;2022-08-21T16:21:05;25.10;1.00
2463;DHT22;1243;54.298;10.172;2022-08-21T16:23:33;25.00;1.00
2463;DHT22;1243;54.298;10.172;2022-08-21T16:26:03;24.90;1.00
2463;DHT22;1243;54.298;10.172;2022-08-21T16:28:31;24.80;1.00
2463;DHT22;1243;54.298;10.172;2022-08-21T16:30:58;24.70;1.00
2463;DHT22;1243;54.298;10.172;2022-08-21T16:33:31;24.60;1.00
2463;DHT22;1243;54.298;10.172;2022-08-21T16:35:58;24.50;1.00
2463;DHT22;1243;54.298;10.172;2022-08-21T16:38:28;24.40;1.00
2463;DHT22;1243;54.298;10.172;2022-08-21T16:40:55;24.30;1.00
2463;DHT22;1243;54.298;10.172;2022-08-21T16:43:26;24.20;1.00
2463;DHT22;1243;54.298;10.172;2022-08-21T16:45:53;24.20;1.00
2463;DHT22;1243;54.298;10.172;2022-08-21T16:48:20;24.20;1.00
2463;DHT22;1243;54.298;10.172;2022-08-21T16:50:46;24.00;1.00
2463;DHT22;1243;54.298;10.172;2022-08-21T16:53:12;23.80;1.00
2463;DHT22;1243;54.298;10.172;2022-08-21T16:55:38;23.70;1.00
2463;DHT22;1243;54.298;10.172;2022-08-21T16:58:29;23.70;1.00
2463;DHT22;1243;54.298;10.172;2022-08-21T17:00:56;23.70;1.00
2463;DHT22;1243;54.298;10.172;2022-08-21T17:03:29;23.60;1.00
2463;DHT22;1243;54.298;10.172;2022-08-21T17:05:57;23.50;1.00
2463;DHT22;1243;54.298;10.172;2022-08-21T17:08:22;23.50;1.00
2463;DHT22;1243;54.298;10.172;2022-08-21T17:10:49;23.50;1.00
2463;DHT22;1243;54.298;10.172;2022-08-21T17:13:16;23.30;1.00
2463;DHT22;1243;54.298;10.172;2022-08-21T17:15:42;23.30;1.00
2463;DHT22;1243;54.298;10.172;2022-08-21T17:18:15;23.10;1.00
2463;DHT22;1243;54.298;10.172;2022-08-21T17:20:41;23.00;1.00
2463;DHT22;1243;54.298;10.172;2022-08-21T17:23:07;23.00;1.00
2463;DHT22;1243;54.298;10.172;2022-08-21T17:25:36;22.90;1.00
2463;DHT22;1243;54.298;10.172;2022-08-21T17:28:05;22.90;1.00
2463;DHT22;1243;54.298;10.172;2022-08-21T17:30:31;22.80;1.00
2463;DHT22;1243;54.298;10.172;2022-08-21T17:32:59;22.90;1.00
2463;DHT22;1243;54.298;10.172;2022-08-21T17:35:25;22.80;1.00
2463;DHT22;1243;54.298;10.172;2022-08-21T17:37:51;22.80;1.00
2463;DHT22;1243;54.298;10.172;2022-08-21T17:40:20;22.80;1.00
2463;DHT22;1243;54.298;10.172;2022-08-21T17:42:47;22.80;1.00
2463;DHT22;1243;54.298;10.172;2022-08-21T17:45:16;22.80;1.00
2463;DHT22;1243;54.298;10.172;2022-08-21T17:47:42;22.80;1.00
2463;DHT22;1243;54.298;10.172;2022-08-21T17:50:10;22.70;1.00
2463;DHT22;1243;54.298;10.172;2022-08-21T17:52:36;22.60;1.00
2463;DHT22;1243;54.298;10.172;2022-08-21T17:55:03;22.50;1.00
2463;DHT22;1243;54.298;10.172;2022-08-21T17:57:32;22.40;1.00